createdAt,value
2022-08-11T00:01:05.204Z,5.20
2022-08-11T00:03:43.268Z,6.75
2022-08-11T00:06:14.089Z,6.60
2022-08-11T00:08:42.148Z,7.90
2022-08-11T00:11:10.821Z,5.80
2022-08-11T00:13:45.596Z,5.20
2022-08-11T00:16:22.496Z,5.35
2022-08-11T00:18:52.261Z,6.55
2022-08-11T00:21:32.507Z,8.18
2022-08-11T00:24:11.250Z,5.93
2022-08-11T00:26:38.041Z,8.88
2022-08-11T00:29:12.264Z,5.68
2022-08-11T00:31:54.248Z,6.10
2022-08-11T00:34:24.857Z,6.50
2022-08-11T00:36:55.838Z,8.70
2022-08-11T00:39:28.459Z,7.53
2022-08-11T00:42:06.798Z,6.55
2022-08-11T00:45:01.149Z,7.97
2022-08-11T00:47:42.749Z,7.10
2022-08-11T00:51:06.943Z,5.75
2022-08-11T00:53:46.914Z,6.75
2022-08-11T00:56:41.068Z,7.00
2022-08-11T00:59:41.051Z,8.85
2022-08-11T01:02:17.091Z,7.00
2022-08-11T01:05:14.059Z,6.50
2022-08-11T01:08:01.953Z,5.40
2022-08-11T01:10:58.707Z,7.47
2022-08-11T01:14:02.564Z,4.00
2022-08-11T01:17:05.906Z,7.70
2022-08-11T01:20:44.750Z,6.63
2022-08-11T01:22:52.582Z,7.65
2022-08-11T01:25:56.856Z,8.15
2022-08-11T01:29:10.598Z,8.10
2022-08-11T01:32:09.326Z,9.55
2022-08-11T01:35:01.554Z,6.40
2022-08-11T01:38:18.476Z,8.25
2022-08-11T01:44:04.198Z,5.50
2022-08-11T01:47:53.475Z,6.88
2022-08-11T01:50:32.595Z,7.18
2022-08-11T01:53:33.606Z,7.63
2022-08-11T01:56:15.059Z,6.65
2022-08-11T01:59:18.854Z,9.05
2022-08-11T02:02:04.128Z,6.55
2022-08-11T02:04:59.568Z,7.32
2022-08-11T02:07:32.661Z,6.85
2022-08-11T02:10:50.343Z,10.50
2022-08-11T02:13:55.164Z,7.47
2022-08-11T02:16:48.904Z,6.60
2022-08-11T02:19:40.579Z,8.63
2022-08-11T02:22:50.335Z,6.80
2022-08-11T02:25:36.333Z,7.63
2022-08-11T02:28:12.113Z,7.38
2022-08-11T02:32:24.895Z,7.43
2022-08-11T02:35:00.086Z,8.88
2022-08-11T02:37:32.974Z,8.98
2022-08-11T02:40:00.406Z,6.90
2022-08-11T02:42:32.891Z,8.65
2022-08-11T02:45:21.149Z,9.88
2022-08-11T02:48:32.595Z,6.88
2022-08-11T02:51:25.759Z,8.32
2022-08-11T02:54:27.590Z,9.25
2022-08-11T02:57:23.016Z,7.72
2022-08-11T03:00:11.681Z,10.43
2022-08-11T03:03:07.474Z,8.77
2022-08-11T03:05:45.347Z,8.02
2022-08-11T03:08:18.582Z,8.00
2022-08-11T03:11:44.635Z,7.50
2022-08-11T03:14:39.696Z,8.90
2022-08-11T03:17:33.834Z,7.60
2022-08-11T03:20:37.799Z,9.43
2022-08-11T03:23:28.925Z,8.73
2022-08-11T03:26:33.014Z,7.78
2022-08-11T03:29:25.211Z,9.15
2022-08-11T03:32:04.438Z,7.97
2022-08-11T03:34:35.403Z,9.75
2022-08-11T03:37:46.562Z,7.38
2022-08-11T03:40:37.568Z,9.43
2022-08-11T03:43:33.477Z,6.90
2022-08-11T03:46:16.723Z,9.10
2022-08-11T03:49:20.916Z,8.23
2022-08-11T03:52:17.141Z,8.75
2022-08-11T03:55:24.679Z,8.43
2022-08-11T03:58:25.142Z,12.50
2022-08-11T04:01:33.864Z,8.90
2022-08-11T04:04:29.246Z,7.90
2022-08-11T04:07:26.721Z,8.95
2022-08-11T04:10:11.123Z,8.35
2022-08-11T04:13:02.908Z,10.32
2022-08-11T04:16:00.609Z,9.55
2022-08-11T04:18:59.622Z,11.90
2022-08-11T04:21:56.505Z,9.55
2022-08-11T04:24:37.771Z,12.35
2022-08-11T04:27:48.094Z,9.63
2022-08-11T04:30:41.404Z,9.90
2022-08-11T04:33:56.590Z,10.65
2022-08-11T04:37:16.175Z,8.95
2022-08-11T04:40:18.028Z,11.20
2022-08-11T04:43:21.718Z,10.48
2022-08-11T04:46:16.561Z,9.02
2022-08-11T04:49:26.527Z,15.23
2022-08-11T04:52:52.839Z,10.25
2022-08-11T04:55:38.165Z,9.38
2022-08-11T04:58:54.783Z,9.52
2022-08-11T05:01:55.390Z,10.65
2022-08-11T05:05:04.112Z,11.80
2022-08-11T05:07:59.563Z,11.00
2022-08-11T05:10:34.226Z,10.68
2022-08-11T05:13:30.254Z,9.52
2022-08-11T05:16:20.272Z,10.02
2022-08-11T05:19:16.363Z,10.05
2022-08-11T05:22:11.390Z,11.05
2022-08-11T05:25:03.858Z,11.93
2022-08-11T05:28:08.499Z,9.13
2022-08-11T05:30:55.668Z,9.55
2022-08-11T05:33:48.913Z,11.32
2022-08-11T05:36:19.306Z,10.30
2022-08-11T05:39:17.964Z,10.32
2022-08-11T05:42:03.379Z,10.02
2022-08-11T05:47:45.155Z,9.57
2022-08-11T05:50:33.571Z,11.90
2022-08-11T05:53:21.580Z,10.05
2022-08-11T05:56:09.395Z,9.75
2022-08-11T05:58:42.366Z,12.00
2022-08-11T06:01:14.384Z,10.63
2022-08-11T06:04:04.145Z,10.88
2022-08-11T06:06:31.539Z,9.57
2022-08-11T06:08:59.200Z,9.88
2022-08-11T06:11:43.779Z,11.80
2022-08-11T06:14:13.044Z,10.57
2022-08-11T06:16:42.000Z,10.27
2022-08-11T06:19:09.592Z,9.90
2022-08-11T06:21:37.379Z,11.43
2022-08-11T06:24:11.646Z,11.70
2022-08-11T06:27:01.206Z,10.80
2022-08-11T06:29:37.767Z,11.27
2022-08-11T06:32:15.502Z,10.25
2022-08-11T06:35:17.073Z,10.95
2022-08-11T06:37:58.871Z,9.88
2022-08-11T06:40:43.442Z,9.93
2022-08-11T06:43:16.375Z,11.88
2022-08-11T06:45:52.023Z,11.48
2022-08-11T06:48:24.144Z,10.48
2022-08-11T06:51:12.861Z,11.98
2022-08-11T06:54:03.708Z,9.93
2022-08-11T06:57:18.640Z,9.88
2022-08-11T07:00:00.907Z,12.02
2022-08-11T07:02:35.568Z,11.95
2022-08-11T07:05:23.643Z,10.88
2022-08-11T07:08:36.829Z,10.95
2022-08-11T07:11:46.808Z,10.70
2022-08-11T07:14:39.227Z,9.23
2022-08-11T07:17:11.105Z,9.93
2022-08-11T07:19:59.746Z,9.57
2022-08-11T07:22:49.343Z,8.88
2022-08-11T07:25:35.267Z,9.82
2022-08-11T07:28:29.664Z,10.95
2022-08-11T07:31:03.233Z,11.00
2022-08-11T07:34:07.377Z,8.98
2022-08-11T07:36:31.537Z,10.07
2022-08-11T07:39:00.230Z,11.30
2022-08-11T07:41:31.084Z,8.18
2022-08-11T07:44:09.053Z,9.05
2022-08-11T07:47:02.320Z,9.27
2022-08-11T07:49:51.728Z,8.32
2022-08-11T07:52:32.228Z,7.90
2022-08-11T07:55:03.188Z,9.60
2022-08-11T07:58:13.920Z,8.45
2022-08-11T08:01:03.550Z,8.73
2022-08-11T08:03:57.554Z,10.55
2022-08-11T08:06:43.911Z,8.30
2022-08-11T08:09:30.529Z,8.38
2022-08-11T08:12:18.417Z,8.82
2022-08-11T08:15:03.901Z,10.13
2022-08-11T08:18:08.949Z,10.07
2022-08-11T08:20:49.930Z,8.45
2022-08-11T08:23:18.575Z,8.20
2022-08-11T08:25:46.844Z,6.75
2022-08-11T08:28:17.486Z,8.65
2022-08-11T08:30:47.573Z,9.02
2022-08-11T08:33:17.981Z,8.75
2022-08-11T08:35:55.811Z,8.73
2022-08-11T08:38:23.607Z,9.45
2022-08-11T08:40:56.255Z,8.27
2022-08-11T08:43:24.667Z,8.23
2022-08-11T08:45:55.628Z,10.30
2022-08-11T08:48:25.727Z,9.38
2022-08-11T08:51:26.124Z,8.32
2022-08-11T08:54:20.984Z,6.68
2022-08-11T08:56:52.233Z,8.90
2022-08-11T08:59:22.673Z,7.53
2022-08-11T09:01:55.397Z,7.10
2022-08-11T09:04:22.318Z,7.88
2022-08-11T09:06:52.360Z,12.90
2022-08-11T09:09:21.779Z,7.75
2022-08-11T09:11:50.112Z,7.78
2022-08-11T09:14:18.950Z,7.03
2022-08-11T09:16:47.431Z,7.10
2022-08-11T09:19:19.800Z,6.53
2022-08-11T09:24:54.710Z,7.22
2022-08-11T09:27:22.950Z,9.52
2022-08-11T09:29:50.868Z,7.35
2022-08-11T09:32:21.951Z,7.85
2022-08-11T09:34:52.043Z,7.00
2022-08-11T09:37:55.372Z,7.25
2022-08-11T09:40:29.902Z,7.60
2022-08-11T09:43:21.713Z,7.90
2022-08-11T09:45:51.488Z,7.85
2022-08-11T09:48:24.437Z,8.45
2022-08-11T09:50:54.280Z,7.38
2022-08-11T09:53:37.436Z,8.55
2022-08-11T09:56:30.456Z,6.30
2022-08-11T09:58:58.576Z,6.32
2022-08-11T10:01:30.237Z,10.00
2022-08-11T10:04:25.621Z,9.30
2022-08-11T10:07:06.793Z,7.40
2022-08-11T10:09:41.172Z,7.32
2022-08-11T10:12:41.771Z,5.22
2022-08-11T10:15:29.349Z,6.60
2022-08-11T10:18:26.416Z,6.10
2022-08-11T10:20:58.707Z,9.32
2022-08-11T10:24:00.381Z,9.63
2022-08-11T10:26:49.204Z,8.18
2022-08-11T10:29:35.790Z,6.28
2022-08-11T10:32:31.449Z,4.95
2022-08-11T10:34:59.840Z,4.90
2022-08-11T10:38:08.848Z,6.70
2022-08-11T10:40:23.510Z,6.05
2022-08-11T10:43:02.945Z,5.43
2022-08-11T10:45:49.890Z,5.88
2022-08-11T10:48:21.086Z,7.28
2022-08-11T10:51:07.950Z,6.75
2022-08-11T10:53:54.759Z,4.13
2022-08-11T10:56:40.761Z,4.47
2022-08-11T10:59:09.363Z,5.93
2022-08-11T11:01:43.781Z,6.90
2022-08-11T11:04:27.376Z,5.00
2022-08-11T11:07:19.759Z,6.18
2022-08-11T11:09:50.472Z,5.30
2022-08-11T11:12:56.621Z,6.80
2022-08-11T11:15:45.103Z,9.55
2022-08-11T11:18:18.380Z,6.85
2022-08-11T11:21:14.992Z,5.50
2022-08-11T11:24:02.124Z,7.68
2022-08-11T11:26:52.887Z,6.00
2022-08-11T11:29:33.845Z,7.03
2022-08-11T11:32:16.010Z,4.38
2022-08-11T11:35:01.322Z,6.88
2022-08-11T11:37:33.664Z,7.53
2022-08-11T11:40:00.724Z,4.43
2022-08-11T11:42:28.645Z,7.80
2022-08-11T11:44:56.767Z,6.38
2022-08-11T11:47:25.756Z,5.97
2022-08-11T11:49:54.259Z,6.75
2022-08-11T11:52:22.324Z,7.15
2022-08-11T11:54:54.971Z,7.85
2022-08-11T11:57:58.348Z,4.90
2022-08-11T12:00:45.251Z,6.90
2022-08-11T12:03:13.114Z,4.97
2022-08-11T12:05:43.599Z,6.10
2022-08-11T12:08:18.594Z,6.13
2022-08-11T12:11:11.568Z,6.72
2022-08-11T12:13:40.928Z,4.82
2022-08-11T12:16:33.250Z,6.10
2022-08-11T12:19:01.885Z,6.25
2022-08-11T12:21:29.890Z,4.45
2022-08-11T12:24:18.391Z,4.72
2022-08-11T12:27:15.634Z,6.28
2022-08-11T12:29:44.254Z,7.45
2022-08-11T12:32:11.767Z,5.57
2022-08-11T12:34:38.742Z,4.55
2022-08-11T12:37:10.753Z,4.50
2022-08-11T12:40:15.907Z,5.63
2022-08-11T12:43:22.110Z,4.95
2022-08-11T12:45:58.151Z,6.20
2022-08-11T12:49:01.052Z,5.82
2022-08-11T12:54:56.984Z,5.57
2022-08-11T12:57:56.339Z,4.10
2022-08-11T13:00:43.210Z,6.05
2022-08-11T13:03:30.324Z,5.38
2022-08-11T13:05:59.509Z,4.57
2022-08-11T13:08:29.553Z,4.53
2022-08-11T13:11:18.347Z,5.80
2022-08-11T13:13:54.580Z,5.95
2022-08-11T13:16:29.047Z,5.32
2022-08-11T13:18:58.645Z,6.28
2022-08-11T13:21:27.199Z,4.50
2022-08-11T13:24:00.714Z,7.03
2022-08-11T13:26:41.644Z,7.10
2022-08-11T13:29:21.807Z,5.75
2022-08-11T13:31:49.800Z,3.95
2022-08-11T13:34:20.652Z,5.13
2022-08-11T13:36:54.172Z,4.90
2022-08-11T13:39:24.274Z,6.47
2022-08-11T13:41:55.043Z,4.28
2022-08-11T13:44:25.740Z,4.35
2022-08-11T13:46:56.199Z,6.00
2022-08-11T13:49:23.994Z,4.25
2022-08-11T13:51:51.349Z,7.18
2022-08-11T13:54:22.507Z,5.43
2022-08-11T13:56:53.972Z,4.93
2022-08-11T13:59:30.022Z,4.65
2022-08-11T14:02:21.606Z,5.95
2022-08-11T14:05:01.419Z,4.32
2022-08-11T14:07:35.404Z,4.85
2022-08-11T14:10:04.540Z,6.30
2022-08-11T14:12:52.187Z,5.82
2022-08-11T14:15:30.295Z,4.78
2022-08-11T14:18:17.630Z,3.92
2022-08-11T14:21:05.655Z,6.15
2022-08-11T14:23:41.852Z,4.82
2022-08-11T14:26:29.069Z,6.28
2022-08-11T14:29:02.209Z,6.25
2022-08-11T14:31:31.863Z,6.38
2022-08-11T14:34:02.448Z,6.50
2022-08-11T14:36:35.506Z,4.90
2022-08-11T14:39:08.291Z,6.03
2022-08-11T14:42:11.324Z,5.15
2022-08-11T14:45:03.215Z,5.85
2022-08-11T14:47:32.857Z,4.72
2022-08-11T14:50:09.747Z,4.85
2022-08-11T14:52:38.837Z,4.15
2022-08-11T14:55:26.239Z,5.07
2022-08-11T14:57:56.195Z,5.20
2022-08-11T15:00:23.974Z,6.20
2022-08-11T15:03:09.953Z,5.15
2022-08-11T15:05:55.924Z,5.72
2022-08-11T15:08:46.677Z,6.00
2022-08-11T15:11:34.988Z,4.63
2022-08-11T15:14:03.701Z,6.63
2022-08-11T15:16:49.874Z,6.03
2022-08-11T15:19:21.823Z,8.15
2022-08-11T15:22:08.380Z,4.38
2022-08-11T15:24:36.453Z,3.28
2022-08-11T15:27:30.996Z,6.85
2022-08-11T15:30:33.324Z,4.70
2022-08-11T15:33:26.168Z,6.05
2022-08-11T15:36:12.610Z,4.50
2022-08-11T15:39:19.298Z,4.45
2022-08-11T15:42:21.160Z,4.30
2022-08-11T15:45:13.721Z,8.13
2022-08-11T15:47:49.004Z,7.18
2022-08-11T15:50:19.805Z,6.18
2022-08-11T15:52:56.046Z,5.57
2022-08-11T15:55:23.817Z,4.65
2022-08-11T15:58:11.874Z,6.30
2022-08-11T16:01:08.702Z,5.45
2022-08-11T16:04:07.753Z,3.72
2022-08-11T16:06:47.486Z,5.82
2022-08-11T16:09:18.480Z,8.05
2022-08-11T16:11:46.958Z,5.10
2022-08-11T16:14:35.880Z,5.90
2022-08-11T16:17:05.648Z,6.25
2022-08-11T16:19:35.047Z,6.30
2022-08-11T16:22:08.017Z,7.13
2022-08-11T16:27:02.604Z,7.20
2022-08-11T16:27:26.768Z,5.25
2022-08-11T16:29:56.035Z,6.95
2022-08-11T16:32:25.579Z,4.20
2022-08-11T16:35:16.018Z,5.38
2022-08-11T16:38:03.048Z,10.20
2022-08-11T16:40:32.427Z,8.60
2022-08-11T16:43:19.489Z,7.30
2022-08-11T16:46:05.948Z,5.45
2022-08-11T16:48:38.243Z,7.03
2022-08-11T16:51:07.794Z,5.72
2022-08-11T16:54:03.628Z,5.22
2022-08-11T16:56:32.926Z,6.07
2022-08-11T16:59:16.985Z,6.55
2022-08-11T17:01:58.392Z,6.07
2022-08-11T17:04:49.959Z,7.22
2022-08-11T17:07:41.856Z,4.40
2022-08-11T17:10:53.271Z,8.77
2022-08-11T17:13:35.586Z,6.90
2022-08-11T17:16:07.387Z,7.07
2022-08-11T17:18:53.083Z,5.85
2022-08-11T17:21:33.556Z,4.47
2022-08-11T17:24:08.791Z,5.63
2022-08-11T17:26:56.810Z,7.22
2022-08-11T17:29:30.616Z,5.38
2022-08-11T17:32:17.855Z,4.13
2022-08-11T17:35:06.508Z,6.82
2022-08-11T17:37:35.937Z,8.07
2022-08-11T17:40:08.095Z,5.65
2022-08-11T17:42:54.695Z,4.95
2022-08-11T17:45:42.346Z,4.35
2022-08-11T17:48:25.949Z,4.70
2022-08-11T17:51:00.197Z,5.07
2022-08-11T17:54:17.037Z,5.25
2022-08-11T17:56:54.942Z,5.03
2022-08-11T17:59:48.845Z,6.10
2022-08-11T18:02:36.925Z,4.40
2022-08-11T18:05:12.844Z,5.53
2022-08-11T18:08:01.758Z,5.82
2022-08-11T18:10:50.165Z,5.65
2022-08-11T18:13:39.519Z,6.70
2022-08-11T18:16:25.551Z,6.35
2022-08-11T18:19:11.488Z,7.60
2022-08-11T18:22:11.027Z,4.82
2022-08-11T18:27:53.240Z,4.93
2022-08-11T18:30:38.548Z,7.00
2022-08-11T18:36:39.471Z,5.68
2022-08-11T18:39:29.129Z,7.88
2022-08-11T18:42:28.832Z,6.22
2022-08-11T18:45:21.228Z,4.43
2022-08-11T18:48:11.602Z,8.30
2022-08-11T18:51:31.520Z,10.13
2022-08-11T18:54:14.438Z,7.40
2022-08-11T18:57:03.271Z,7.63
2022-08-11T18:59:54.138Z,7.32
2022-08-11T19:02:49.308Z,5.53
2022-08-11T19:06:36.089Z,5.68
2022-08-11T19:08:46.980Z,7.28
2022-08-11T19:11:33.323Z,6.72
2022-08-11T19:14:21.717Z,9.38
2022-08-11T19:17:09.684Z,7.85
2022-08-11T19:19:57.886Z,6.43
2022-08-11T19:22:45.428Z,7.82
2022-08-11T19:25:32.255Z,6.32
2022-08-11T19:28:19.404Z,6.78
2022-08-11T19:31:04.843Z,8.90
2022-08-11T19:34:09.535Z,6.53
2022-08-11T19:36:57.524Z,7.32
2022-08-11T19:39:45.205Z,7.10
2022-08-11T19:42:31.477Z,5.38
2022-08-11T19:45:18.898Z,7.13
2022-08-11T19:48:30.675Z,6.63
2022-08-11T19:51:12.328Z,7.35
2022-08-11T19:53:58.698Z,9.88
2022-08-11T19:56:44.680Z,6.35
2022-08-11T19:59:30.695Z,6.22
2022-08-11T20:02:16.134Z,4.45
2022-08-11T20:05:01.783Z,4.47
2022-08-11T20:07:48.692Z,4.38
2022-08-11T20:10:38.164Z,5.82
2022-08-11T20:13:26.612Z,7.57
2022-08-11T20:16:13.959Z,7.90
2022-08-11T20:19:00.875Z,9.20
2022-08-11T20:21:47.369Z,6.32
2022-08-11T20:24:33.814Z,8.25
2022-08-11T20:27:25.000Z,11.40
2022-08-11T20:30:12.094Z,10.07
2022-08-11T20:32:59.101Z,7.45
2022-08-11T20:35:45.261Z,7.63
2022-08-11T20:38:32.638Z,11.30
2022-08-11T20:41:20.017Z,8.60
2022-08-11T20:44:09.140Z,6.47
2022-08-11T20:46:57.661Z,7.68
2022-08-11T20:49:51.423Z,4.65
2022-08-11T20:52:41.535Z,6.97
2022-08-11T20:55:51.550Z,7.80
2022-08-11T21:01:42.579Z,5.38
2022-08-11T21:04:28.485Z,5.28
2022-08-11T21:07:15.256Z,5.10
2022-08-11T21:10:22.780Z,5.70
2022-08-11T21:13:24.219Z,5.25
2022-08-11T21:16:25.411Z,4.88
2022-08-11T21:20:01.779Z,5.13
2022-08-11T21:22:33.020Z,6.25
2022-08-11T21:25:19.906Z,5.75
2022-08-11T21:28:07.762Z,5.68
2022-08-11T21:30:57.620Z,5.32
2022-08-11T21:33:47.045Z,4.18
2022-08-11T21:36:33.572Z,4.65
2022-08-11T21:39:22.853Z,7.75
2022-08-11T21:42:13.025Z,6.05
2022-08-11T21:45:01.311Z,6.53
2022-08-11T21:47:48.215Z,9.43
2022-08-11T21:50:33.900Z,7.90
2022-08-11T21:53:19.822Z,7.72
2022-08-11T21:56:05.351Z,6.25
2022-08-11T21:58:51.862Z,8.43
2022-08-11T22:01:37.294Z,6.45
2022-08-11T22:04:24.476Z,7.00
2022-08-11T22:07:11.006Z,6.25
2022-08-11T22:09:56.509Z,6.28
2022-08-11T22:12:45.292Z,5.85
2022-08-11T22:15:31.381Z,6.13
2022-08-11T22:18:16.814Z,6.50
2022-08-11T22:21:03.453Z,5.07
2022-08-11T22:23:51.546Z,7.30
2022-08-11T22:26:39.623Z,5.90
2022-08-11T22:29:49.189Z,6.63
2022-08-11T22:32:33.516Z,5.00
2022-08-11T22:35:20.744Z,7.72
2022-08-11T22:38:06.540Z,4.97
2022-08-11T22:40:52.439Z,6.57
2022-08-11T22:43:38.326Z,6.47
2022-08-11T22:46:24.107Z,7.00
2022-08-11T22:49:10.785Z,11.25
2022-08-11T22:51:57.182Z,8.38
2022-08-11T22:54:43.114Z,7.82
2022-08-11T22:57:28.989Z,6.40
2022-08-11T23:00:15.563Z,8.88
2022-08-11T23:03:00.703Z,5.68
2022-08-11T23:08:31.255Z,6.30
2022-08-11T23:11:16.715Z,6.18
2022-08-11T23:14:03.811Z,7.10
2022-08-11T23:16:50.071Z,5.40
2022-08-11T23:20:07.220Z,5.40
2022-08-11T23:22:50.272Z,4.95
2022-08-11T23:25:36.293Z,8.00
2022-08-11T23:28:24.897Z,6.93
2022-08-11T23:31:13.802Z,6.95
2022-08-11T23:34:02.243Z,5.25
2022-08-11T23:36:48.131Z,8.25
2022-08-11T23:39:35.372Z,7.00
2022-08-11T23:42:22.516Z,8.35
2022-08-11T23:45:09.617Z,8.18
2022-08-11T23:47:57.379Z,4.25
2022-08-11T23:50:43.418Z,6.10
2022-08-11T23:53:29.144Z,5.07
2022-08-11T23:56:14.751Z,8.70
2022-08-11T23:59:00.204Z,6.15
